Time;durP1;ratioP1;P1;durP2;ratioP2;P2;SDS_P1;SDS_P2;PMS_P1;PMS_P2;Temp;Humidity;BMP_temperature;BMP_pressure;BME280_temperature;BME280_humidity;BME280_pressure;Samples;Min_cycle;Max_cycle;Signal;HPM_P1;HPM_P2
2023/09/24 00:01:46;;;;;;;3.10;1.33;;;;;;;12.54;100.00;101581.56;5077283;28;20536;-72
2023/09/24 00:04:13;;;;;;;4.10;1.60;;;;;;;12.45;100.00;101587.94;5089715;22;20595;-72
2023/09/24 00:06:39;;;;;;;3.17;1.40;;;;;;;12.44;100.00;101586.28;5075936;28;20464;-70
2023/09/24 00:09:06;;;;;;;3.03;1.60;;;;;;;12.38;100.00;101589.06;5076140;28;20987;-72
2023/09/24 00:11:33;;;;;;;4.40;2.20;;;;;;;12.40;100.00;101596.16;5075939;28;20469;-73
2023/09/24 00:14:01;;;;;;;3.23;1.40;;;;;;;12.35;100.00;101599.69;5075745;28;20555;-73
2023/09/24 00:16:28;;;;;;;4.00;1.90;;;;;;;12.35;100.00;101597.81;5076286;28;20496;-73
2023/09/24 00:18:55;;;;;;;2.93;1.40;;;;;;;12.32;100.00;101601.09;5075986;28;20535;-73
2023/09/24 00:21:21;;;;;;;5.20;1.60;;;;;;;12.30;100.00;101602.47;5076433;28;20533;-74
2023/09/24 00:23:48;;;;;;;3.13;1.50;;;;;;;12.27;99.80;101614.75;5075468;28;20933;-73
2023/09/24 00:26:15;;;;;;;3.90;1.50;;;;;;;12.26;99.98;101613.13;5075721;28;20548;-73
2023/09/24 00:28:41;;;;;;;4.53;1.50;;;;;;;12.17;100.00;101622.97;5075651;28;20446;-73
2023/09/24 00:31:09;;;;;;;3.03;1.33;;;;;;;12.09;100.00;101626.31;5075577;28;20499;-74
2023/09/24 00:33:36;;;;;;;2.93;1.30;;;;;;;12.08;100.00;101627.41;5075613;28;20444;-74
2023/09/24 00:36:03;;;;;;;3.27;1.73;;;;;;;12.02;98.20;101626.66;5075404;28;20783;-74
2023/09/24 00:38:29;;;;;;;3.67;1.50;;;;;;;11.96;97.08;101627.00;5075545;28;20480;-74
2023/09/24 00:40:56;;;;;;;3.23;1.23;;;;;;;11.88;96.66;101628.41;5075927;28;20520;-74
2023/09/24 00:43:28;;;;;;;2.73;1.27;;;;;;;11.78;95.56;101631.97;5075048;28;20447;-74
2023/09/24 00:45:55;;;;;;;2.87;1.23;;;;;;;11.69;95.11;101635.59;5075200;28;20803;-74
2023/09/24 00:48:28;;;;;;;4.00;1.57;;;;;;;11.65;96.97;101640.75;5074223;28;20490;-73
2023/09/24 00:50:56;;;;;;;3.57;1.33;;;;;;;11.61;98.07;101636.97;5075228;28;20484;-74
2023/09/24 00:53:23;;;;;;;4.27;1.40;;;;;;;11.64;99.24;101639.13;5075419;28;20441;-74
2023/09/24 00:55:50;;;;;;;3.47;1.30;;;;;;;11.60;99.97;101644.31;5075213;28;20572;-74
2023/09/24 00:58:18;;;;;;;3.23;1.30;;;;;;;11.60;100.00;101643.50;5075191;28;20529;-74
2023/09/24 01:00:46;;;;;;;2.50;1.10;;;;;;;11.60;100.00;101646.22;5074660;28;20446;-74
2023/09/24 01:03:14;;;;;;;7.10;1.70;;;;;;;11.61;100.00;101642.41;5074759;28;20481;-74
2023/09/24 01:05:43;;;;;;;3.37;1.33;;;;;;;11.58;100.00;101643.78;5074855;28;20877;-74
2023/09/24 01:08:10;;;;;;;3.03;1.30;;;;;;;11.60;100.00;101655.19;5075037;28;20916;-74
2023/09/24 01:10:37;;;;;;;2.67;1.07;;;;;;;11.57;100.00;101654.91;5075515;28;20449;-74
2023/09/24 01:13:04;;;;;;;3.50;1.57;;;;;;;11.56;100.00;101650.59;5074761;28;20446;-74
2023/09/24 01:15:31;;;;;;;3.40;1.17;;;;;;;11.56;100.00;101654.13;5074583;28;20485;-74
2023/09/24 01:18:01;;;;;;;2.87;1.13;;;;;;;11.55;100.00;101651.66;5074693;28;20438;-74
2023/09/24 01:20:31;;;;;;;5.77;1.67;;;;;;;11.54;100.00;101656.28;5074236;28;20819;-74
2023/09/24 01:23:00;;;;;;;2.90;1.07;;;;;;;11.50;100.00;101662.53;5074736;28;20426;-74
2023/09/24 01:25:27;;;;;;;5.70;1.77;;;;;;;11.48;100.00;101662.03;5074874;28;20491;-74
2023/09/24 01:27:54;;;;;;;3.27;1.13;;;;;;;11.46;100.00;101664.19;5074423;28;20433;-74
2023/09/24 01:30:21;;;;;;;3.80;1.70;;;;;;;11.52;100.00;101674.75;5074133;28;20448;-74
2023/09/24 01:32:50;;;;;;;3.60;1.63;;;;;;;11.55;100.00;101676.91;5074418;28;20909;-74
2023/09/24 01:35:17;;;;;;;3.77;1.10;;;;;;;11.61;100.00;101678.50;5074984;28;20946;-73
2023/09/24 01:37:44;;;;;;;3.20;1.50;;;;;;;11.62;100.00;101679.31;5073947;28;20874;-73
2023/09/24 01:40:20;;;;;;;3.43;1.13;;;;;;;11.62;100.00;101673.88;5074435;28;20533;-73
2023/09/24 01:42:47;;;;;;;3.43;1.40;;;;;;;11.67;100.00;101684.69;5074554;28;20517;-73
2023/09/24 01:45:15;;;;;;;2.83;1.30;;;;;;;11.67;100.00;101687.41;5074092;28;20527;-73
2023/09/24 01:47:44;;;;;;;2.97;1.30;;;;;;;11.68;100.00;101682.78;5074287;28;20488;-74
2023/09/24 01:50:11;;;;;;;2.90;1.20;;;;;;;11.73;100.00;101682.75;5074463;28;20448;-73
2023/09/24 01:52:37;;;;;;;2.80;0.90;;;;;;;11.71;100.00;101683.03;5073697;28;20975;-73
2023/09/24 01:55:05;;;;;;;3.33;1.40;;;;;;;11.69;100.00;101685.25;5074115;28;20433;-74
2023/09/24 01:57:33;;;;;;;3.40;1.47;;;;;;;11.69;100.00;101689.88;5074214;28;20457;-74
2023/09/24 02:00:23;;;;;;;3.27;1.40;;;;;;;11.66;100.00;101693.94;5073382;28;20520;-74
2023/09/24 02:02:47;;;;;;;2.90;1.40;;;;;;;11.68;100.00;101701.78;5073664;28;20778;-74
2023/09/24 02:05:13;;;;;;;2.97;1.20;;;;;;;11.69;100.00;101706.16;5074088;28;20536;-74
2023/09/24 02:07:40;;;;;;;4.90;1.87;;;;;;;11.66;100.00;101704.78;5073740;28;21043;-74
2023/09/24 02:10:08;;;;;;;3.60;1.53;;;;;;;11.62;100.00;101706.44;5073772;28;20430;-74
2023/09/24 02:12:37;;;;;;;5.63;1.17;;;;;;;11.61;100.00;101711.06;5073671;28;20525;-74
2023/09/24 02:15:11;;;;;;;3.23;1.37;;;;;;;11.55;99.17;101705.94;5073301;28;20536;-74
2023/09/24 02:17:41;;;;;;;2.80;1.10;;;;;;;11.46;97.92;101704.91;5073650;28;20492;-74
2023/09/24 02:20:14;;;;;;;3.33;1.40;;;;;;;11.34;97.61;101710.66;5073998;28;20524;-74
2023/09/24 02:22:41;;;;;;;2.60;1.30;;;;;;;11.26;96.60;101719.38;5073713;28;20504;-74
2023/09/24 02:25:10;;;;;;;2.70;1.50;;;;;;;11.19;97.02;101716.94;5073774;28;20469;-73
2023/09/24 02:27:39;;;;;;;4.40;1.20;;;;;;;11.20;97.66;101731.31;5073443;28;20847;-73
2023/09/24 02:30:06;;;;;;;4.20;1.47;;;;;;;11.18;99.49;101728.88;5073369;28;20449;-73
2023/09/24 02:32:33;;;;;;;5.70;1.13;;;;;;;11.15;100.00;101737.56;5073548;28;20631;-73
2023/09/24 02:35:00;;;;;;;4.60;1.87;;;;;;;11.12;100.00;101730.00;5073516;28;20434;-73
2023/09/24 02:37:29;;;;;;;3.70;1.40;;;;;;;11.09;100.00;101727.84;5073681;28;20512;-73
2023/09/24 02:39:56;;;;;;;2.63;1.03;;;;;;;11.15;100.00;101734.84;5073447;28;20441;-73
2023/09/24 02:42:25;;;;;;;3.60;1.47;;;;;;;11.14;100.00;101721.59;5073710;28;20533;-74
2023/09/24 02:44:53;;;;;;;3.00;1.40;;;;;;;11.16;100.00;101722.94;5073366;28;20449;-73
2023/09/24 02:47:19;;;;;;;3.00;1.03;;;;;;;11.17;100.00;101735.41;5073583;28;20519;-74
2023/09/24 02:49:46;;;;;;;2.70;1.10;;;;;;;11.16;100.00;101747.34;5073344;28;20890;-70
2023/09/24 02:52:13;;;;;;;3.20;1.20;;;;;;;11.14;100.00;101737.84;5073029;28;20933;-73
2023/09/24 02:54:40;;;;;;;3.00;1.17;;;;;;;11.10;100.00;101748.44;5073422;28;20444;-76
2023/09/24 02:57:08;;;;;;;6.33;1.60;;;;;;;11.09;100.00;101752.25;5072794;28;20485;-75
2023/09/24 02:59:35;;;;;;;3.20;1.47;;;;;;;11.14;100.00;101754.94;5073235;28;20450;-75
2023/09/24 03:02:03;;;;;;;3.10;1.30;;;;;;;11.10;100.00;101754.66;5072960;28;20805;-75
2023/09/24 03:04:30;;;;;;;4.10;1.57;;;;;;;11.08;100.00;101756.03;5072779;28;20457;-75
2023/09/24 03:06:57;;;;;;;2.50;1.07;;;;;;;11.10;100.00;101753.84;5073188;28;20466;-75
2023/09/24 03:09:24;;;;;;;4.10;1.40;;;;;;;11.04;100.00;101769.34;5073017;28;20498;-75
2023/09/24 03:11:51;;;;;;;2.77;1.20;;;;;;;11.09;100.00;101772.03;5075571;28;20457;-75
2023/09/24 03:14:18;;;;;;;3.53;1.30;;;;;;;11.13;100.00;101768.78;5077066;28;20528;-75
2023/09/24 03:16:45;;;;;;;3.40;1.30;;;;;;;11.11;100.00;101771.75;5076571;28;20872;-75
2023/09/24 03:19:13;;;;;;;3.50;1.50;;;;;;;11.15;100.00;101775.53;5076589;28;20448;-75
2023/09/24 03:21:40;;;;;;;2.80;1.20;;;;;;;11.11;100.00;101780.72;5076595;28;20441;-75
2023/09/24 03:24:10;;;;;;;3.47;1.60;;;;;;;11.14;100.00;101779.34;5076808;28;20963;-75
2023/09/24 03:26:37;;;;;;;5.87;1.50;;;;;;;11.11;100.00;101778.00;5076388;28;20493;-75
2023/09/24 03:29:03;;;;;;;3.97;1.43;;;;;;;11.15;100.00;101786.38;5076792;28;20441;-75
2023/09/24 03:31:32;;;;;;;4.20;1.90;;;;;;;11.20;100.00;101789.09;5076623;28;20449;-75
2023/09/24 03:33:59;;;;;;;2.73;1.20;;;;;;;11.19;100.00;101792.88;5076697;28;20544;-75
2023/09/24 03:36:27;;;;;;;2.30;0.80;;;;;;;11.28;100.00;101796.66;5076457;28;20484;-75
2023/09/24 03:38:54;;;;;;;4.67;1.83;;;;;;;11.32;100.00;101805.06;5076365;28;20448;-75
2023/09/24 03:41:21;;;;;;;3.93;1.80;;;;;;;11.41;100.00;101808.81;5076196;28;20445;-75
2023/09/24 03:43:47;;;;;;;3.43;1.27;;;;;;;11.47;100.00;101812.34;5076828;28;20438;-75
2023/09/24 03:46:15;;;;;;;5.50;1.70;;;;;;;11.50;100.00;101806.34;5076012;28;20536;-75
2023/09/24 03:48:41;;;;;;;2.67;1.20;;;;;;;11.57;100.00;101821.25;5076562;28;20437;-75
2023/09/24 03:51:08;;;;;;;3.37;1.57;;;;;;;11.66;100.00;101821.50;5076352;28;20496;-75
2023/09/24 03:53:37;;;;;;;3.37;1.50;;;;;;;11.73;100.00;101830.16;5076600;28;20442;-75
2023/09/24 03:56:07;;;;;;;3.00;1.40;;;;;;;11.76;100.00;101828.78;5076091;28;20497;-75
2023/09/24 03:58:34;;;;;;;3.40;1.73;;;;;;;11.81;100.00;101834.19;5076191;28;20446;-75
2023/09/24 04:01:08;;;;;;;3.37;1.50;;;;;;;11.77;100.00;101831.22;5076140;28;20521;-75
2023/09/24 04:03:35;;;;;;;2.97;1.20;;;;;;;11.77;100.00;101833.91;5075987;28;20454;-75
2023/09/24 04:06:08;;;;;;;4.63;1.53;;;;;;;11.76;100.00;101834.22;5076124;28;20457;-75
2023/09/24 04:08:35;;;;;;;4.80;1.80;;;;;;;11.82;100.00;101839.38;5075660;28;20425;-75
2023/09/24 04:11:02;;;;;;;3.03;1.10;;;;;;;11.89;100.00;101852.63;5076141;28;20532;-75
2023/09/24 04:13:29;;;;;;;4.03;1.77;;;;;;;11.95;100.00;101848.00;5076291;28;20528;-75
2023/09/24 04:15:55;;;;;;;3.37;1.40;;;;;;;11.99;100.00;101852.59;5076125;28;20462;-75
2023/09/24 04:18:22;;;;;;;3.47;1.67;;;;;;;12.05;100.00;101864.25;5075879;28;20528;-75
2023/09/24 04:20:48;;;;;;;3.07;1.20;;;;;;;12.15;100.00;101866.09;5075842;28;20933;-75
2023/09/24 04:23:15;;;;;;;3.00;1.50;;;;;;;12.15;100.00;101866.91;5075689;28;20492;-75
2023/09/24 04:25:43;;;;;;;4.00;1.53;;;;;;;12.20;100.00;101861.44;5075326;28;20477;-75
2023/09/24 04:28:13;;;;;;;3.17;1.40;;;;;;;12.30;100.00;101874.97;5075737;28;20437;-75
2023/09/24 04:30:40;;;;;;;4.60;1.90;;;;;;;12.35;100.00;101879.56;5075655;28;20490;-75
2023/09/24 04:33:10;;;;;;;2.80;1.43;;;;;;;12.37;100.00;101875.47;5075326;28;20871;-75
2023/09/24 04:35:36;;;;;;;3.83;2.20;;;;;;;12.42;100.00;101880.06;5075435;28;20441;-74
2023/09/24 04:38:04;;;;;;;3.77;1.77;;;;;;;12.49;100.00;101882.50;5075478;28;20481;-74
2023/09/24 04:40:32;;;;;;;5.03;2.20;;;;;;;12.53;100.00;101880.81;5076116;28;20445;-74
2023/09/24 04:43:00;;;;;;;2.97;1.20;;;;;;;12.58;100.00;101889.75;5075329;28;20968;-74
2023/09/24 04:45:26;;;;;;;3.93;2.00;;;;;;;12.59;100.00;101896.00;5075632;28;20528;-74
2023/09/24 04:47:53;;;;;;;3.20;1.40;;;;;;;12.63;100.00;101892.44;5075451;28;20552;-74
2023/09/24 04:50:20;;;;;;;3.20;1.60;;;;;;;12.68;100.00;101896.22;5075281;28;20429;-74
2023/09/24 04:52:47;;;;;;;3.07;1.27;;;;;;;12.73;100.00;101904.31;5075300;28;20441;-74
2023/09/24 04:55:14;;;;;;;2.90;1.10;;;;;;;12.78;100.00;101907.00;5075168;28;20449;-74
2023/09/24 04:57:41;;;;;;;4.97;1.93;;;;;;;12.81;100.00;101917.31;5075348;28;20584;-74
2023/09/24 05:00:10;;;;;;;3.60;1.77;;;;;;;12.85;100.00;101918.38;5075018;28;20523;-74
2023/09/24 05:02:37;;;;;;;3.80;1.70;;;;;;;12.90;100.00;101926.50;5074998;28;20438;-74
2023/09/24 05:05:04;;;;;;;4.83;1.77;;;;;;;12.94;100.00;101926.75;5074766;28;21016;-74
2023/09/24 05:07:31;;;;;;;3.90;2.07;;;;;;;12.98;100.00;101941.41;5074831;28;20510;-74
2023/09/24 05:09:57;;;;;;;3.80;2.00;;;;;;;13.03;100.00;101944.91;5075097;28;20429;-74
2023/09/24 05:12:24;;;;;;;3.50;1.80;;;;;;;13.08;100.00;101953.00;5075047;28;20476;-74
2023/09/24 05:14:51;;;;;;;5.90;2.17;;;;;;;13.17;100.00;101957.84;5074736;28;20785;-74
2023/09/24 05:17:19;;;;;;;3.90;2.20;;;;;;;13.18;100.00;101963.00;5074563;28;20484;-74
2023/09/24 05:19:46;;;;;;;5.50;2.10;;;;;;;13.24;100.00;101972.78;5074487;28;20469;-74
2023/09/24 05:22:12;;;;;;;5.20;2.27;;;;;;;13.23;100.00;101971.16;5074933;28;20498;-74
2023/09/24 05:24:39;;;;;;;4.07;2.40;;;;;;;13.29;100.00;101975.47;5074542;28;20437;-74
2023/09/24 05:27:05;;;;;;;4.60;2.60;;;;;;;13.30;100.00;101977.09;5074468;28;20532;-74
2023/09/24 05:29:32;;;;;;;4.07;2.17;;;;;;;13.37;100.00;101977.59;5074454;28;20933;-74
2023/09/24 05:32:00;;;;;;;5.00;2.30;;;;;;;13.41;100.00;101980.50;5074392;28;20494;-74
2023/09/24 05:34:28;;;;;;;4.03;1.93;;;;;;;13.47;100.00;101984.03;5073855;28;20450;-74
2023/09/24 05:36:55;;;;;;;4.90;1.93;;;;;;;13.56;100.00;101982.31;5074156;28;20500;-69
2023/09/24 05:39:22;;;;;;;3.63;1.87;;;;;;;13.61;100.00;101991.25;5073978;28;21036;-74
2023/09/24 05:41:49;;;;;;;8.00;2.53;;;;;;;13.64;100.00;101987.13;5074175;28;20441;-73
2023/09/24 05:44:16;;;;;;;4.50;2.07;;;;;;;13.68;100.00;101992.78;5074405;28;20491;-75
2023/09/24 05:46:42;;;;;;;4.00;1.80;;;;;;;13.74;100.00;102005.28;5073835;28;20873;-75
2023/09/24 05:49:09;;;;;;;10.30;2.40;;;;;;;13.75;100.00;102006.91;5074634;28;20533;-73
2023/09/24 05:51:37;;;;;;;5.00;2.50;;;;;;;13.76;100.00;102011.25;5074013;28;20562;-74
2023/09/24 05:54:04;;;;;;;4.63;2.20;;;;;;;13.79;100.00;102010.69;5074196;28;20433;-73
2023/09/24 05:56:30;;;;;;;4.20;2.00;;;;;;;13.84;100.00;102019.59;5073965;28;20475;-76
2023/09/24 05:58:57;;;;;;;4.70;2.37;;;;;;;13.87;100.00;102021.75;5073650;28;20995;-76
2023/09/24 06:01:24;;;;;;;6.27;3.30;;;;;;;13.91;100.00;102026.63;5073933;28;20437;-76
2023/09/24 06:03:51;;;;;;;4.67;2.90;;;;;;;14.00;100.00;102031.16;5087115;22;20591;-75
2023/09/24 06:06:17;;;;;;;5.23;2.73;;;;;;;14.05;100.00;102033.03;5073736;28;20859;-75
2023/09/24 06:08:45;;;;;;;4.10;2.00;;;;;;;14.14;100.00;102029.38;5073936;28;20442;-75
2023/09/24 06:11:12;;;;;;;5.87;2.90;;;;;;;14.18;100.00;102032.34;5073749;28;20524;-74
2023/09/24 06:13:39;;;;;;;4.57;1.80;;;;;;;14.21;100.00;102037.22;5073920;28;20472;-75
2023/09/24 06:16:06;;;;;;;5.87;2.87;;;;;;;14.22;100.00;102030.66;5073774;28;20971;-75
2023/09/24 06:18:33;;;;;;;4.30;2.10;;;;;;;14.27;100.00;102046.16;5073751;28;20563;-75
2023/09/24 06:21:02;;;;;;;4.40;2.40;;;;;;;14.33;100.00;102051.22;5074160;28;20445;-75
2023/09/24 06:23:29;;;;;;;5.03;2.47;;;;;;;14.37;100.00;102057.72;5073814;28;20474;-75
2023/09/24 06:25:57;;;;;;;3.80;1.80;;;;;;;14.44;100.00;102062.03;5073611;28;20493;-75
2023/09/24 06:28:25;;;;;;;4.10;2.13;;;;;;;14.50;100.00;102064.44;5073356;28;20988;-75
2023/09/24 06:30:59;;;;;;;4.90;2.10;;;;;;;14.52;100.00;102075.88;5073842;28;20495;-75
2023/09/24 06:33:25;;;;;;;3.60;1.90;;;;;;;14.55;100.00;102075.28;5073375;28;20521;-73
2023/09/24 06:35:52;;;;;;;5.13;2.37;;;;;;;14.55;100.00;102071.75;5073666;28;20557;-72
2023/09/24 06:38:19;;;;;;;3.80;1.80;;;;;;;14.57;100.00;102083.19;5073590;28;20477;-74
2023/09/24 06:40:45;;;;;;;4.77;2.40;;;;;;;14.54;100.00;102079.09;5073214;28;20958;-75
2023/09/24 06:43:13;;;;;;;3.80;1.60;;;;;;;14.56;100.00;102081.53;5073223;28;20957;-75
2023/09/24 06:45:40;;;;;;;4.77;2.33;;;;;;;14.63;100.00;102076.56;5073750;28;20452;-74
2023/09/24 06:48:07;;;;;;;4.60;2.37;;;;;;;14.61;100.00;102078.78;5077930;28;20473;-75
2023/09/24 06:50:34;;;;;;;4.17;1.70;;;;;;;14.67;100.00;102083.06;5078282;28;20441;-75
2023/09/24 06:53:01;;;;;;;3.47;2.00;;;;;;;14.71;100.00;102089.53;5078277;28;20441;-73
2023/09/24 06:55:28;;;;;;;3.83;1.87;;;;;;;14.77;100.00;102084.84;5077198;28;20811;-75
2023/09/24 06:57:55;;;;;;;6.37;2.90;;;;;;;14.83;100.00;102092.69;5077893;28;20889;-74
2023/09/24 07:00:23;;;;;;;3.70;1.67;;;;;;;14.90;100.00;102095.03;5077507;28;20449;-74
2023/09/24 07:02:50;;;;;;;4.00;2.50;;;;;;;14.98;100.00;102096.31;5077284;28;20515;-74
2023/09/24 07:05:17;;;;;;;4.30;1.90;;;;;;;15.03;100.00;102104.41;5077390;28;20437;-70
2023/09/24 07:07:44;;;;;;;4.30;1.67;;;;;;;14.96;100.00;102106.69;5077604;28;20465;-71
2023/09/24 07:10:11;;;;;;;3.93;1.83;;;;;;;15.05;99.34;102115.84;5077327;28;20563;-71
2023/09/24 07:12:38;;;;;;;3.33;1.67;;;;;;;15.06;98.39;102118.28;5077369;28;20939;-71
2023/09/24 07:15:06;;;;;;;5.47;2.07;;;;;;;15.13;98.26;102123.38;5077559;28;20491;-71
2023/09/24 07:17:35;;;;;;;5.33;2.00;;;;;;;15.20;98.63;102129.28;5076879;28;20485;-70
2023/09/24 07:20:02;;;;;;;2.90;1.47;;;;;;;15.24;99.13;102141.25;5083326;28;20456;-73
2023/09/24 07:22:30;;;;;;;3.73;1.73;;;;;;;15.32;98.95;102147.97;5101788;28;20437;-71
2023/09/24 07:24:57;;;;;;;7.70;2.77;;;;;;;15.33;97.86;102155.88;5102140;28;20443;-71
2023/09/24 07:27:24;;;;;;;3.43;1.57;;;;;;;15.37;96.42;102156.91;5101636;28;20483;-71
2023/09/24 07:29:51;;;;;;;2.90;1.47;;;;;;;15.44;95.32;102158.44;5101959;28;20480;-71
2023/09/24 07:32:18;;;;;;;5.30;2.03;;;;;;;15.48;95.27;102164.94;5101940;28;20437;-71
2023/09/24 07:34:47;;;;;;;3.90;1.60;;;;;;;15.44;95.13;102161.97;5102024;28;20413;-71
2023/09/24 07:37:15;;;;;;;3.40;1.63;;;;;;;15.45;94.98;102162.78;5085184;28;20488;-72
2023/09/24 07:39:43;;;;;;;3.60;1.90;;;;;;;15.46;94.70;102165.25;5076882;28;20447;-71
2023/09/24 07:42:09;;;;;;;3.53;1.90;;;;;;;15.42;94.33;102166.94;5077205;28;20531;-72
2023/09/24 07:44:36;;;;;;;6.77;2.23;;;;;;;15.39;94.16;102165.59;5076796;28;20949;-71
2023/09/24 07:47:03;;;;;;;3.97;1.60;;;;;;;15.39;95.05;102164.78;5076597;28;20536;-71
2023/09/24 07:49:29;;;;;;;2.90;1.50;;;;;;;15.41;94.80;102159.06;5076586;28;20491;-72
2023/09/24 07:51:57;;;;;;;3.97;1.77;;;;;;;15.47;95.15;102166.06;5076296;28;20447;-71
2023/09/24 07:54:25;;;;;;;3.00;1.30;;;;;;;15.46;94.77;102172.63;5076619;28;20472;-71
2023/09/24 07:56:52;;;;;;;4.97;1.60;;;;;;;15.47;94.95;102166.84;5075891;28;20594;-71
2023/09/24 07:59:19;;;;;;;2.53;1.10;;;;;;;15.41;94.80;102164.50;5076310;28;20532;-72
2023/09/24 08:01:46;;;;;;;3.67;1.97;;;;;;;15.52;93.01;102168.69;5076284;28;20856;-71
2023/09/24 08:04:12;;;;;;;3.77;1.60;;;;;;;15.57;93.80;102160.44;5075993;28;20541;-71
2023/09/24 08:06:39;;;;;;;4.87;2.10;;;;;;;15.59;94.09;102171.88;5076056;28;20552;-71
2023/09/24 08:09:07;;;;;;;4.17;1.97;;;;;;;15.75;93.66;102173.28;5076122;28;20528;-71
2023/09/24 08:11:34;;;;;;;3.33;1.63;;;;;;;15.83;91.31;102182.75;5076054;28;20440;-71
2023/09/24 08:14:01;;;;;;;3.30;1.57;;;;;;;15.80;91.72;102184.13;5075981;28;20491;-71
2023/09/24 08:16:28;;;;;;;3.27;1.30;;;;;;;15.91;91.32;102187.53;5075927;28;20461;-71
2023/09/24 08:18:54;;;;;;;3.50;1.80;;;;;;;16.02;91.56;102188.19;5075894;28;20949;-71
2023/09/24 08:21:21;;;;;;;4.13;1.50;;;;;;;16.15;91.71;102201.88;5075823;28;20815;-71
2023/09/24 08:23:48;;;;;;;3.17;1.30;;;;;;;16.27;90.71;102204.16;5076169;28;20516;-71
2023/09/24 08:26:16;;;;;;;3.43;1.60;;;;;;;16.32;89.73;102209.53;5075698;28;20497;-71
2023/09/24 08:28:43;;;;;;;3.20;1.50;;;;;;;16.35;89.17;102214.41;5075730;28;20449;-70
2023/09/24 08:31:10;;;;;;;2.90;1.20;;;;;;;16.40;90.04;102203.38;5075562;28;20446;-70
2023/09/24 08:33:37;;;;;;;2.80;1.47;;;;;;;16.35;89.73;102206.22;5075636;28;20441;-70
2023/09/24 08:36:08;;;;;;;3.53;1.80;;;;;;;16.15;90.55;102207.34;5075498;28;20453;-71
2023/09/24 08:38:35;;;;;;;3.10;1.50;;;;;;;16.07;88.97;102209.97;5075821;28;20461;-73
2023/09/24 08:41:02;;;;;;;3.40;1.60;;;;;;;15.93;89.39;102215.38;5081593;28;20528;-69
2023/09/24 08:43:32;;;;;;;4.00;1.67;;;;;;;15.82;90.04;102211.19;5078654;28;20452;-74
2023/09/24 08:45:59;;;;;;;2.70;1.13;;;;;;;15.75;91.04;102213.47;5075468;28;20884;-74
2023/09/24 08:48:29;;;;;;;3.20;1.40;;;;;;;15.80;91.13;102216.13;5075316;28;20444;-74
2023/09/24 08:50:57;;;;;;;2.60;1.03;;;;;;;15.86;91.33;102217.69;5075409;28;20445;-74
2023/09/24 08:53:27;;;;;;;2.63;0.90;;;;;;;15.93;91.76;102214.56;5075734;28;20495;-74
2023/09/24 08:55:54;;;;;;;3.33;1.63;;;;;;;16.02;89.70;102215.50;5075153;28;20457;-72
2023/09/24 08:58:22;;;;;;;3.70;1.33;;;;;;;16.01;88.99;102214.69;5075207;28;20485;-72
2023/09/24 09:00:51;;;;;;;4.37;1.43;;;;;;;16.00;88.90;102212.28;5075344;28;20943;-72
2023/09/24 09:03:18;;;;;;;2.70;1.40;;;;;;;15.99;88.84;102224.31;5074569;28;20464;-73
2023/09/24 09:05:45;;;;;;;3.03;1.30;;;;;;;15.89;89.83;102228.00;5075268;28;20418;-72
2023/09/24 09:08:12;;;;;;;4.33;1.63;;;;;;;15.92;90.99;102226.59;5074517;28;20451;-73
2023/09/24 09:10:39;;;;;;;2.93;1.37;;;;;;;15.97;90.79;102234.72;5074684;28;20441;-73
2023/09/24 09:13:08;;;;;;;2.90;1.33;;;;;;;16.08;91.36;102223.34;5074725;28;20961;-75
2023/09/24 09:15:35;;;;;;;3.40;1.43;;;;;;;16.19;91.52;102220.44;5074735;28;20536;-73
2023/09/24 09:18:03;;;;;;;3.10;1.47;;;;;;;16.26;90.69;102224.41;5074998;28;20576;-73
2023/09/24 09:20:41;;;;;;;2.73;1.37;;;;;;;16.31;89.14;102220.78;5074777;28;20870;-73
2023/09/24 09:23:12;;;;;;;3.10;1.47;;;;;;;16.43;87.97;102223.88;5074635;28;20436;-73
2023/09/24 09:25:51;;;;;;;2.57;1.10;;;;;;;16.39;88.16;102226.38;5074576;28;20426;-72
2023/09/24 09:28:22;;;;;;;3.00;1.40;;;;;;;16.52;87.42;102224.00;5074498;28;20491;-73
2023/09/24 09:31:02;;;;;;;2.50;1.10;;;;;;;16.62;87.19;102226.53;5074825;28;20443;-73
2023/09/24 09:33:31;;;;;;;2.83;1.30;;;;;;;16.66;87.25;102224.81;5074847;28;20471;-73
2023/09/24 09:35:58;;;;;;;2.73;1.10;;;;;;;16.72;86.50;102225.53;5074310;28;20544;-72
2023/09/24 09:38:25;;;;;;;2.50;1.00;;;;;;;16.67;85.06;102226.44;5074847;28;20516;-70
2023/09/24 09:40:54;;;;;;;2.53;0.90;;;;;;;16.51;85.40;102228.66;5074042;28;20524;-72
2023/09/24 09:43:23;;;;;;;2.13;0.70;;;;;;;16.52;85.11;102224.78;5074542;28;20436;-70
2023/09/24 09:45:52;;;;;;;3.00;1.00;;;;;;;16.50;86.13;102228.94;5074233;28;20832;-69
2023/09/24 09:48:28;;;;;;;2.90;1.10;;;;;;;16.72;86.55;102220.06;5074958;28;20437;-73
2023/09/24 09:50:59;;;;;;;3.10;1.23;;;;;;;16.95;86.45;102221.00;5074253;28;20456;-73
2023/09/24 09:53:32;;;;;;;4.10;1.30;;;;;;;17.25;84.47;102216.84;5074653;28;20418;-72
2023/09/24 09:56:01;;;;;;;2.90;1.13;;;;;;;17.37;83.25;102222.63;5078149;28;20994;-71
2023/09/24 09:58:31;;;;;;;2.73;0.90;;;;;;;17.36;82.93;102213.59;5078385;28;20523;-73
2023/09/24 10:00:59;;;;;;;3.10;1.20;;;;;;;17.30;82.56;102217.53;5073948;28;20440;-72
2023/09/24 10:03:27;;;;;;;2.40;0.80;;;;;;;17.27;82.64;102211.88;5073956;28;20453;-72
2023/09/24 10:05:57;;;;;;;3.17;1.17;;;;;;;17.27;82.13;102212.69;5073799;28;20976;-72
2023/09/24 10:08:41;;;;;;;2.67;0.80;;;;;;;17.28;82.05;102208.84;5074174;28;20414;-72
2023/09/24 10:11:09;;;;;;;2.03;0.57;;;;;;;17.33;82.09;102214.19;5073436;28;20440;-72
2023/09/24 10:13:46;;;;;;;2.40;1.00;;;;;;;17.36;80.71;102210.84;5073721;28;20469;-72
2023/09/24 10:16:37;;;;;;;2.40;0.70;;;;;;;17.50;80.66;102210.00;5073698;28;20492;-72
2023/09/24 10:19:09;;;;;;;2.70;1.00;;;;;;;17.62;79.53;102219.31;5073716;28;20461;-72
2023/09/24 10:21:38;;;;;;;2.90;0.70;;;;;;;17.77;79.27;102217.38;5073595;28;20435;-72
2023/09/24 10:24:41;;;;;;;2.43;0.70;;;;;;;17.90;78.16;102208.28;5073736;28;20438;-73
2023/09/24 10:27:08;;;;;;;2.43;0.80;;;;;;;17.86;76.13;102223.75;5041755;28;20475;-72
2023/09/24 10:30:06;;;;;;;3.50;0.80;;;;;;;17.88;74.97;102214.09;5074316;28;20457;-72
2023/09/24 10:32:49;;;;;;;2.27;0.70;;;;;;;17.91;75.12;102218.13;5068982;28;20471;-73
2023/09/24 10:35:16;;;;;;;2.53;0.80;;;;;;;18.01;74.45;102209.66;5074054;28;20472;-72
2023/09/24 10:38:03;;;;;;;2.10;0.60;;;;;;;18.19;72.51;102207.03;5074013;28;20549;-73
2023/09/24 10:40:34;;;;;;;3.33;0.80;;;;;;;18.36;73.49;102210.69;5073606;28;20473;-73
2023/09/24 10:43:20;;;;;;;2.47;0.90;;;;;;;18.59;72.73;102216.13;5073236;28;20791;-72
2023/09/24 10:45:48;;;;;;;2.20;0.70;;;;;;;18.84;72.00;102204.50;5073373;28;20859;-72
2023/09/24 10:48:16;;;;;;;2.33;0.80;;;;;;;19.02;69.15;102205.38;5073291;28;21039;-73
2023/09/24 10:50:44;;;;;;;2.27;0.67;;;;;;;19.08;69.18;102217.00;5073317;28;20808;-73
2023/09/24 10:53:12;;;;;;;2.60;0.90;;;;;;;19.23;70.45;102218.53;5073336;28;20445;-73
2023/09/24 10:55:41;;;;;;;2.23;0.63;;;;;;;19.25;69.07;102219.81;5073066;28;20884;-72
2023/09/24 10:58:13;;;;;;;2.67;0.83;;;;;;;19.12;67.40;102215.25;5073407;28;20461;-72
2023/09/24 11:00:41;;;;;;;2.10;0.50;;;;;;;19.21;68.17;102223.50;5073668;28;20433;-71
2023/09/24 11:03:09;;;;;;;3.73;0.83;;;;;;;19.28;66.79;102219.19;5073429;28;20484;-72
2023/09/24 11:05:42;;;;;;;3.03;0.87;;;;;;;19.32;67.26;102220.16;5073709;28;20514;-72
2023/09/24 11:08:09;;;;;;;2.00;0.60;;;;;;;19.26;64.81;102223.38;5073440;28;20430;-72
2023/09/24 11:10:38;;;;;;;4.20;1.10;;;;;;;19.80;64.77;102224.78;5073246;28;20495;-72
2023/09/24 11:13:07;;;;;;;2.83;0.73;;;;;;;21.08;63.48;102229.50;5073510;28;20540;-72
2023/09/24 11:15:36;;;;;;;3.43;1.00;;;;;;;22.46;56.77;102228.75;5078273;28;20913;-72
2023/09/24 11:18:03;;;;;;;2.30;0.70;;;;;;;23.70;53.24;102233.97;5078551;28;20851;-72
2023/09/24 11:20:31;;;;;;;1.97;0.53;;;;;;;25.06;49.51;102232.84;5074907;28;20462;-72
2023/09/24 11:22:59;;;;;;;2.30;0.77;;;;;;;26.28;47.09;102234.28;5076043;28;20441;-69
2023/09/24 11:25:25;;;;;;;3.23;0.70;;;;;;;26.92;45.23;102242.97;5077061;28;20453;-73
2023/09/24 11:27:55;;;;;;;3.53;1.00;;;;;;;26.88;44.70;102245.69;5073211;28;20470;-73